sensor_id;sensor_type;location;lat;lon;timestamp;pressure;altitude;pressure_sealevel;temperature;humidity
3206;BME280;1615;53.602;11.418;2023-05-23T00:01:08;100847.06;;;18.60;100.00
3206;BME280;1615;53.602;11.418;2023-05-23T00:03:33;100839.09;;;18.58;100.00
3206;BME280;1615;53.602;11.418;2023-05-23T00:06:00;100826.84;;;18.59;100.00
3206;BME280;1615;53.602;11.418;2023-05-23T00:08:25;100796.63;;;18.46;100.00
3206;BME280;1615;53.602;11.418;2023-05-23T00:10:51;100822.69;;;18.65;100.00
3206;BME280;1615;53.602;11.418;2023-05-23T00:13:16;100744.84;;;18.05;100.00
3206;BME280;1615;53.602;11.418;2023-05-23T00:15:43;100805.91;;;18.62;100.00
3206;BME280;1615;53.602;11.418;2023-05-23T00:18:09;100799.53;;;18.61;100.00
3206;BME280;1615;53.602;11.418;2023-05-23T00:20:36;100797.44;;;18.58;100.00
3206;BME280;1615;53.602;11.418;2023-05-23T00:23:01;100802.97;;;18.58;100.00
3206;BME280;1615;53.602;11.418;2023-05-23T00:25:28;100800.09;;;18.55;100.00
3206;BME280;1615;53.602;11.418;2023-05-23T00:28:04;100798.97;;;18.56;100.00
3206;BME280;1615;53.602;11.418;2023-05-23T00:30:30;100729.19;;;18.01;100.00
3206;BME280;1615;53.602;11.418;2023-05-23T00:32:56;100787.56;;;18.37;100.00
3206;BME280;1615;53.602;11.418;2023-05-23T00:35:21;100807.03;;;18.49;100.00
3206;BME280;1615;53.602;11.418;2023-05-23T00:37:47;100806.91;;;18.45;100.00
3206;BME280;1615;53.602;11.418;2023-05-23T00:40:14;100807.72;;;18.46;100.00
3206;BME280;1615;53.602;11.418;2023-05-23T00:42:40;100780.28;;;18.32;100.00
3206;BME280;1615;53.602;11.418;2023-05-23T00:45:06;100730.81;;;18.02;100.00
3206;BME280;1615;53.602;11.418;2023-05-23T00:47:31;100800.53;;;18.45;100.00
3206;BME280;1615;53.602;11.418;2023-05-23T00:49:57;100797.75;;;18.45;100.00
3206;BME280;1615;53.602;11.418;2023-05-23T00:52:23;100798.13;;;18.43;100.00
3206;BME280;1615;53.602;11.418;2023-05-23T00:54:48;100791.88;;;18.46;100.00
3206;BME280;1615;53.602;11.418;2023-05-23T00:57:14;100788.41;;;18.49;100.00
3206;BME280;1615;53.602;11.418;2023-05-23T00:59:39;100791.97;;;18.50;100.00
3206;BME280;1615;53.602;11.418;2023-05-23T01:02:05;100721.81;;;18.05;100.00
3206;BME280;1615;53.602;11.418;2023-05-23T01:04:30;100795.91;;;18.49;100.00
3206;BME280;1615;53.602;11.418;2023-05-23T01:06:58;100722.97;;;18.16;100.00
3206;BME280;1615;53.602;11.418;2023-05-23T01:09:26;100723.41;;;18.06;100.00
3206;BME280;1615;53.602;11.418;2023-05-23T01:12:05;100794.53;;;18.55;100.00
3206;BME280;1615;53.602;11.418;2023-05-23T01:14:48;100781.81;;;18.54;100.00
3206;BME280;1615;53.602;11.418;2023-05-23T01:17:25;100783.44;;;18.55;100.00
3206;BME280;1615;53.602;11.418;2023-05-23T01:20:03;100781.03;;;18.53;100.00
3206;BME280;1615;53.602;11.418;2023-05-23T01:22:53;100780.41;;;18.60;100.00
3206;BME280;1615;53.602;11.418;2023-05-23T01:28:00;100778.81;;;18.59;100.00
3206;BME280;1615;53.602;11.418;2023-05-23T01:30:29;100775.81;;;18.64;100.00
3206;BME280;1615;53.602;11.418;2023-05-23T01:32:57;100764.69;;;18.64;100.00
3206;BME280;1615;53.602;11.418;2023-05-23T01:35:24;100688.75;;;18.12;100.00
3206;BME280;1615;53.602;11.418;2023-05-23T01:37:54;100767.69;;;18.59;100.00
3206;BME280;1615;53.602;11.418;2023-05-23T01:40:21;100766.88;;;18.58;100.00
3206;BME280;1615;53.602;11.418;2023-05-23T01:42:46;100781.59;;;18.59;100.00
3206;BME280;1615;53.602;11.418;2023-05-23T01:45:13;100774.75;;;18.56;100.00
3206;BME280;1615;53.602;11.418;2023-05-23T01:47:39;100780.31;;;18.56;100.00
3206;BME280;1615;53.602;11.418;2023-05-23T01:50:06;100764.94;;;18.59;100.00
3206;BME280;1615;53.602;11.418;2023-05-23T01:52:33;100780.09;;;18.61;100.00
3206;BME280;1615;53.602;11.418;2023-05-23T01:54:59;100776.03;;;18.59;100.00
3206;BME280;1615;53.602;11.418;2023-05-23T01:57:28;100785.97;;;18.60;100.00
3206;BME280;1615;53.602;11.418;2023-05-23T01:59:55;100650.13;;;17.83;100.00
3206;BME280;1615;53.602;11.418;2023-05-23T02:02:20;100775.81;;;18.64;100.00
3206;BME280;1615;53.602;11.418;2023-05-23T02:04:48;100782.88;;;18.61;100.00
3206;BME280;1615;53.602;11.418;2023-05-23T02:07:13;100770.94;;;18.61;100.00
3206;BME280;1615;53.602;11.418;2023-05-23T02:09:38;100769.81;;;18.62;100.00
3206;BME280;1615;53.602;11.418;2023-05-23T02:12:04;100751.50;;;18.49;100.00
3206;BME280;1615;53.602;11.418;2023-05-23T02:14:30;100866.72;;;18.55;100.00
3206;BME280;1615;53.602;11.418;2023-05-23T02:16:55;100773.16;;;18.55;100.00
3206;BME280;1615;53.602;11.418;2023-05-23T02:19:20;100777.88;;;18.55;100.00
3206;BME280;1615;53.602;11.418;2023-05-23T02:21:45;100759.25;;;18.43;100.00
3206;BME280;1615;53.602;11.418;2023-05-23T02:24:11;100785.41;;;18.54;100.00
3206;BME280;1615;53.602;11.418;2023-05-23T02:26:36;100785.06;;;18.56;100.00
3206;BME280;1615;53.602;11.418;2023-05-23T02:29:02;100789.47;;;18.57;100.00
3206;BME280;1615;53.602;11.418;2023-05-23T02:31:27;100780.53;;;18.63;100.00
3206;BME280;1615;53.602;11.418;2023-05-23T02:33:52;100775.81;;;18.64;100.00
3206;BME280;1615;53.602;11.418;2023-05-23T02:36:18;100711.09;;;18.27;100.00
3206;BME280;1615;53.602;11.418;2023-05-23T02:38:43;100719.75;;;18.26;100.00
3206;BME280;1615;53.602;11.418;2023-05-23T02:41:09;100778.81;;;18.59;100.00
3206;BME280;1615;53.602;11.418;2023-05-23T02:43:34;100771.66;;;18.58;100.00
3206;BME280;1615;53.602;11.418;2023-05-23T02:46:00;100774.66;;;18.53;100.00
3206;BME280;1615;53.602;11.418;2023-05-23T02:48:25;100767.38;;;18.48;100.00
3206;BME280;1615;53.602;11.418;2023-05-23T02:50:50;100772.22;;;18.51;100.00
3206;BME280;1615;53.602;11.418;2023-05-23T02:53:16;100767.81;;;18.62;100.00
3206;BME280;1615;53.602;11.418;2023-05-23T02:55:41;100759.81;;;18.61;100.00
3206;BME280;1615;53.602;11.418;2023-05-23T02:58:07;100767.38;;;18.60;100.00
3206;BME280;1615;53.602;11.418;2023-05-23T03:00:33;100770.81;;;18.57;100.00
3206;BME280;1615;53.602;11.418;2023-05-23T03:02:58;100781.25;;;18.60;100.00
3206;BME280;1615;53.602;11.418;2023-05-23T03:05:23;100774.19;;;18.63;100.00
3206;BME280;1615;53.602;11.418;2023-05-23T03:07:49;100775.91;;;18.55;100.00
3206;BME280;1615;53.602;11.418;2023-05-23T03:10:16;100717.78;;;18.14;100.00
3206;BME280;1615;53.602;11.418;2023-05-23T03:12:41;100779.53;;;18.56;100.00
3206;BME280;1615;53.602;11.418;2023-05-23T03:15:08;100782.03;;;18.61;100.00
3206;BME280;1615;53.602;11.418;2023-05-23T03:17:33;100775.56;;;18.69;100.00
3206;BME280;1615;53.602;11.418;2023-05-23T03:19:59;100713.97;;;18.19;100.00
3206;BME280;1615;53.602;11.418;2023-05-23T03:22:24;100788.41;;;18.61;100.00
3206;BME280;1615;53.602;11.418;2023-05-23T03:24:49;100704.94;;;18.10;100.00
3206;BME280;1615;53.602;11.418;2023-05-23T03:27:15;100795.03;;;18.57;100.00
3206;BME280;1615;53.602;11.418;2023-05-23T03:29:40;100794.19;;;18.56;100.00
3206;BME280;1615;53.602;11.418;2023-05-23T03:32:05;100798.59;;;18.57;100.00
3206;BME280;1615;53.602;11.418;2023-05-23T03:34:31;100808.91;;;18.57;100.00
3206;BME280;1615;53.602;11.418;2023-05-23T03:36:58;100795.81;;;18.45;100.00
3206;BME280;1615;53.602;11.418;2023-05-23T03:39:24;100799.19;;;18.51;100.00
3206;BME280;1615;53.602;11.418;2023-05-23T03:41:49;100794.09;;;18.53;100.00
3206;BME280;1615;53.602;11.418;2023-05-23T03:44:15;100704.44;;;17.96;100.00
3206;BME280;1615;53.602;11.418;2023-05-23T03:46:40;100783.19;;;18.48;100.00
3206;BME280;1615;53.602;11.418;2023-05-23T03:49:05;100734.31;;;18.11;100.00
3206;BME280;1615;53.602;11.418;2023-05-23T03:51:31;100703.78;;;17.99;100.00
3206;BME280;1615;53.602;11.418;2023-05-23T03:53:56;100788.06;;;18.51;100.00
3206;BME280;1615;53.602;11.418;2023-05-23T03:56:21;100778.59;;;18.52;100.00
3206;BME280;1615;53.602;11.418;2023-05-23T03:58:47;100778.59;;;18.52;100.00
3206;BME280;1615;53.602;11.418;2023-05-23T04:01:12;100776.16;;;18.50;100.00
3206;BME280;1615;53.602;11.418;2023-05-23T04:03:38;100762.16;;;18.35;100.00
3206;BME280;1615;53.602;11.418;2023-05-23T04:06:03;100787.59;;;18.49;100.00
3206;BME280;1615;53.602;11.418;2023-05-23T04:08:29;100794.97;;;18.45;100.00
3206;BME280;1615;53.602;11.418;2023-05-23T04:10:58;100783.88;;;18.45;100.00
3206;BME280;1615;53.602;11.418;2023-05-23T04:13:24;100786.19;;;18.43;100.00
3206;BME280;1615;53.602;11.418;2023-05-23T04:15:50;100800.31;;;18.38;100.00
3206;BME280;1615;53.602;11.418;2023-05-23T04:18:16;100791.94;;;18.26;100.00
3206;BME280;1615;53.602;11.418;2023-05-23T04:20:42;100796.59;;;18.34;100.00
3206;BME280;1615;53.602;11.418;2023-05-23T04:23:07;100806.75;;;18.30;100.00
3206;BME280;1615;53.602;11.418;2023-05-23T04:25:32;100802.69;;;18.27;100.00
3206;BME280;1615;53.602;11.418;2023-05-23T04:27:59;100802.81;;;18.31;100.00
3206;BME280;1615;53.602;11.418;2023-05-23T04:30:25;100815.75;;;18.27;100.00
3206;BME280;1615;53.602;11.418;2023-05-23T04:32:51;100800.72;;;18.28;100.00
3206;BME280;1615;53.602;11.418;2023-05-23T04:35:17;100797.75;;;18.33;100.00
3206;BME280;1615;53.602;11.418;2023-05-23T04:37:43;100800.72;;;18.28;100.00
3206;BME280;1615;53.602;11.418;2023-05-23T04:40:10;100796.78;;;18.29;100.00
3206;BME280;1615;53.602;11.418;2023-05-23T04:42:35;100790.34;;;18.37;100.00
3206;BME280;1615;53.602;11.418;2023-05-23T04:45:00;100714.63;;;17.92;100.00
3206;BME280;1615;53.602;11.418;2023-05-23T04:47:27;100783.66;;;18.38;100.00
3206;BME280;1615;53.602;11.418;2023-05-23T04:49:54;100782.97;;;18.41;100.00
3206;BME280;1615;53.602;11.418;2023-05-23T04:52:19;100779.72;;;18.39;100.00
3206;BME280;1615;53.602;11.418;2023-05-23T04:54:45;100778.63;;;18.31;100.00
3206;BME280;1615;53.602;11.418;2023-05-23T04:57:12;100720.41;;;17.99;100.00
3206;BME280;1615;53.602;11.418;2023-05-23T04:59:38;100776.59;;;18.40;100.00
3206;BME280;1615;53.602;11.418;2023-05-23T05:02:03;100773.13;;;18.43;100.00
3206;BME280;1615;53.602;11.418;2023-05-23T05:04:30;100722.97;;;18.04;100.00
3206;BME280;1615;53.602;11.418;2023-05-23T05:06:55;100758.22;;;18.36;100.00
3206;BME280;1615;53.602;11.418;2023-05-23T05:09:21;100755.75;;;18.34;100.00
3206;BME280;1615;53.602;11.418;2023-05-23T05:11:47;100765.59;;;18.44;100.00
3206;BME280;1615;53.602;11.418;2023-05-23T05:14:12;100768.88;;;18.46;100.00
3206;BME280;1615;53.602;11.418;2023-05-23T05:16:37;100780.41;;;18.48;100.00
3206;BME280;1615;53.602;11.418;2023-05-23T05:19:03;100743.16;;;18.37;100.00
3206;BME280;1615;53.602;11.418;2023-05-23T05:21:29;100765.03;;;18.50;100.00
3206;BME280;1615;53.602;11.418;2023-05-23T05:23:55;100744.09;;;18.41;100.00
3206;BME280;1615;53.602;11.418;2023-05-23T05:26:20;100706.78;;;18.18;100.00
3206;BME280;1615;53.602;11.418;2023-05-23T05:28:47;100754.75;;;18.51;100.00
3206;BME280;1615;53.602;11.418;2023-05-23T05:31:13;100763.88;;;18.51;100.00
3206;BME280;1615;53.602;11.418;2023-05-23T05:33:39;100744.44;;;18.39;100.00
3206;BME280;1615;53.602;11.418;2023-05-23T05:36:06;100770.59;;;18.50;100.00
3206;BME280;1615;53.602;11.418;2023-05-23T05:38:32;100746.41;;;18.39;100.00
3206;BME280;1615;53.602;11.418;2023-05-23T05:40:57;100750.56;;;18.45;100.00
3206;BME280;1615;53.602;11.418;2023-05-23T05:43:24;100770.03;;;18.57;100.00
3206;BME280;1615;53.602;11.418;2023-05-23T05:45:50;100765.38;;;18.61;100.00
3206;BME280;1615;53.602;11.418;2023-05-23T05:48:15;100756.03;;;18.65;100.00
3206;BME280;1615;53.602;11.418;2023-05-23T05:50:40;100721.88;;;18.41;100.00
3206;BME280;1615;53.602;11.418;2023-05-23T05:53:09;100763.53;;;18.65;100.00
3206;BME280;1615;53.602;11.418;2023-05-23T05:55:35;100756.81;;;18.66;100.00
3206;BME280;1615;53.602;11.418;2023-05-23T05:58:00;100761.91;;;18.64;100.00
3206;BME280;1615;53.602;11.418;2023-05-23T06:00:25;100696.16;;;18.20;100.00
3206;BME280;1615;53.602;11.418;2023-05-23T06:02:52;100761.47;;;18.62;100.00
3206;BME280;1615;53.602;11.418;2023-05-23T06:05:21;100769.31;;;18.60;100.00
3206;BME280;1615;53.602;11.418;2023-05-23T06:07:48;100774.88;;;18.60;100.00
3206;BME280;1615;53.602;11.418;2023-05-23T06:10:16;100777.19;;;18.58;100.00
3206;BME280;1615;53.602;11.418;2023-05-23T06:12:41;100789.91;;;18.59;100.00
3206;BME280;1615;53.602;11.418;2023-05-23T06:15:08;100782.03;;;18.61;100.00
3206;BME280;1615;53.602;11.418;2023-05-23T06:17:38;100774.19;;;18.63;100.00
3206;BME280;1615;53.602;11.418;2023-05-23T06:20:04;100778.13;;;18.62;100.00
3206;BME280;1615;53.602;11.418;2023-05-23T06:22:29;100776.25;;;18.66;100.00
3206;BME280;1615;53.602;11.418;2023-05-23T06:24:55;100767.25;;;18.69;100.00
3206;BME280;1615;53.602;11.418;2023-05-23T06:27:20;100640.97;;;17.94;100.00
3206;BME280;1615;53.602;11.418;2023-05-23T06:29:45;100768.41;;;18.80;100.00
3206;BME280;1615;53.602;11.418;2023-05-23T06:32:11;100773.97;;;18.80;100.00
3206;BME280;1615;53.602;11.418;2023-05-23T06:34:36;100762.16;;;18.95;100.00
3206;BME280;1615;53.602;11.418;2023-05-23T06:37:01;100768.13;;;19.09;100.00
3206;BME280;1615;53.602;11.418;2023-05-23T06:39:27;100761.63;;;19.17;100.00
3206;BME280;1615;53.602;11.418;2023-05-23T06:41:53;100766.03;;;19.30;100.00
3206;BME280;1615;53.602;11.418;2023-05-23T06:44:18;100752.13;;;19.30;100.00
3206;BME280;1615;53.602;11.418;2023-05-23T06:46:46;100734.19;;;19.27;100.00
3206;BME280;1615;53.602;11.418;2023-05-23T06:49:12;100774.56;;;19.49;100.00
3206;BME280;1615;53.602;11.418;2023-05-23T06:51:37;100762.94;;;19.59;100.00
3206;BME280;1615;53.602;11.418;2023-05-23T06:54:03;100719.69;;;19.34;100.00
3206;BME280;1615;53.602;11.418;2023-05-23T06:56:28;100778.06;;;19.73;100.00
3206;BME280;1615;53.602;11.418;2023-05-23T06:58:54;100779.53;;;19.83;100.00
3206;BME280;1615;53.602;11.418;2023-05-23T07:01:19;100775.78;;;19.91;100.00
3206;BME280;1615;53.602;11.418;2023-05-23T07:03:45;100772.25;;;20.06;100.00
3206;BME280;1615;53.602;11.418;2023-05-23T07:06:11;100702.03;;;19.69;100.00
3206;BME280;1615;53.602;11.418;2023-05-23T07:08:37;100760.31;;;20.21;100.00
3206;BME280;1615;53.602;11.418;2023-05-23T07:11:02;100690.47;;;19.83;100.00
3206;BME280;1615;53.602;11.418;2023-05-23T07:13:28;100755.88;;;20.32;100.00
3206;BME280;1615;53.602;11.418;2023-05-23T07:15:54;100752.28;;;20.16;100.00
3206;BME280;1615;53.602;11.418;2023-05-23T07:18:20;100762.22;;;20.32;100.00
3206;BME280;1615;53.602;11.418;2023-05-23T07:20:45;100768.16;;;20.31;100.00
3206;BME280;1615;53.602;11.418;2023-05-23T07:23:10;100770.50;;;20.29;100.00
3206;BME280;1615;53.602;11.418;2023-05-23T07:25:35;100773.28;;;20.29;100.00
3206;BME280;1615;53.602;11.418;2023-05-23T07:28:01;100784.69;;;20.24;100.00
3206;BME280;1615;53.602;11.418;2023-05-23T07:30:26;100765.44;;;20.19;100.00
3206;BME280;1615;53.602;11.418;2023-05-23T07:32:51;100766.38;;;20.23;100.00
3206;BME280;1615;53.602;11.418;2023-05-23T07:35:17;100757.75;;;20.28;100.00
3206;BME280;1615;53.602;11.418;2023-05-23T07:37:48;100757.84;;;20.47;100.00
3206;BME280;1615;53.602;11.418;2023-05-23T07:40:13;100748.69;;;20.46;100.00
3206;BME280;1615;53.602;11.418;2023-05-23T07:42:39;100768.72;;;20.67;100.00
3206;BME280;1615;53.602;11.418;2023-05-23T07:45:04;100766.81;;;20.71;100.00
3206;BME280;1615;53.602;11.418;2023-05-23T07:47:30;100766.16;;;21.09;100.00
3206;BME280;1615;53.602;11.418;2023-05-23T07:49:55;100759.88;;;21.31;100.00
3206;BME280;1615;53.602;11.418;2023-05-23T07:52:21;100758.41;;;21.37;100.00
3206;BME280;1615;53.602;11.418;2023-05-23T07:54:46;100688.50;;;20.92;100.00
3206;BME280;1615;53.602;11.418;2023-05-23T07:57:11;100769.50;;;21.33;100.00
3206;BME280;1615;53.602;11.418;2023-05-23T07:59:37;100769.16;;;21.35;100.00
3206;BME280;1615;53.602;11.418;2023-05-23T08:02:02;100760.91;;;21.42;100.00
3206;BME280;1615;53.602;11.418;2023-05-23T08:04:28;100764.53;;;21.42;100.00
3206;BME280;1615;53.602;11.418;2023-05-23T08:06:54;100766.22;;;21.47;100.00
3206;BME280;1615;53.602;11.418;2023-05-23T08:09:20;100757.41;;;21.45;100.00
3206;BME280;1615;53.602;11.418;2023-05-23T08:11:45;100769.16;;;21.35;100.00
3206;BME280;1615;53.602;11.418;2023-05-23T08:14:10;100659.22;;;20.67;100.00
3206;BME280;1615;53.602;11.418;2023-05-23T08:16:38;100718.22;;;21.03;100.00
3206;BME280;1615;53.602;11.418;2023-05-23T08:19:04;100410.03;;;19.23;100.00
3206;BME280;1615;53.602;11.418;2023-05-23T08:21:29;100772.09;;;21.42;100.00
3206;BME280;1615;53.602;11.418;2023-05-23T08:23:54;100779.56;;;21.38;100.00
3206;BME280;1615;53.602;11.418;2023-05-23T08:26:20;100784.28;;;21.34;100.00
3206;BME280;1615;53.602;11.418;2023-05-23T08:28:45;100783.38;;;21.30;100.00
3206;BME280;1615;53.602;11.418;2023-05-23T08:31:11;100781.97;;;21.20;100.00
3206;BME280;1615;53.602;11.418;2023-05-23T08:33:36;100781.88;;;21.17;100.00
3206;BME280;1615;53.602;11.418;2023-05-23T08:36:02;100721.97;;;20.61;100.00
3206;BME280;1615;53.602;11.418;2023-05-23T08:38:27;100799.91;;;20.88;100.00
3206;BME280;1615;53.602;11.418;2023-05-23T08:40:53;100813.00;;;20.57;100.00
3206;BME280;1615;53.602;11.418;2023-05-23T08:43:20;100800.53;;;20.82;100.00
3206;BME280;1615;53.602;11.418;2023-05-23T08:45:46;100796.63;;;20.86;100.00
3206;BME280;1615;53.602;11.418;2023-05-23T08:48:13;100797.47;;;20.56;100.00
3206;BME280;1615;53.602;11.418;2023-05-23T08:50:41;100801.25;;;20.48;100.00
3206;BME280;1615;53.602;11.418;2023-05-23T08:53:08;100663.31;;;19.49;100.00
3206;BME280;1615;53.602;11.418;2023-05-23T08:55:36;100800.38;;;20.16;100.00
3206;BME280;1615;53.602;11.418;2023-05-23T08:58:02;100676.75;;;19.19;100.00
3206;BME280;1615;53.602;11.418;2023-05-23T09:00:28;100812.72;;;20.03;100.00
3206;BME280;1615;53.602;11.418;2023-05-23T09:02:53;100811.47;;;20.01;100.00
3206;BME280;1615;53.602;11.418;2023-05-23T09:05:20;100803.31;;;19.53;100.00
3206;BME280;1615;53.602;11.418;2023-05-23T09:07:46;100817.38;;;19.72;100.00
3206;BME280;1615;53.602;11.418;2023-05-23T09:10:13;100822.84;;;19.96;100.00
3206;BME280;1615;53.602;11.418;2023-05-23T09:12:41;100824.97;;;19.87;100.00
3206;BME280;1615;53.602;11.418;2023-05-23T09:15:08;100830.09;;;19.85;100.00
3206;BME280;1615;53.602;11.418;2023-05-23T09:17:33;100839.13;;;19.82;100.00
3206;BME280;1615;53.602;11.418;2023-05-23T09:20:00;100787.56;;;19.09;100.00
3206;BME280;1615;53.602;11.418;2023-05-23T09:22:27;100844.66;;;19.54;100.00
3206;BME280;1615;53.602;11.418;2023-05-23T09:24:54;100863.78;;;19.56;100.00
3206;BME280;1615;53.602;11.418;2023-05-23T09:27:19;100842.34;;;19.56;100.00
3206;BME280;1615;53.602;11.418;2023-05-23T09:29:45;100693.78;;;18.54;100.00
3206;BME280;1615;53.602;11.418;2023-05-23T09:32:16;100856.09;;;19.65;100.00
3206;BME280;1615;53.602;11.418;2023-05-23T09:34:58;100839.63;;;19.72;100.00
3206;BME280;1615;53.602;11.418;2023-05-23T09:37:39;100852.09;;;19.90;100.00
3206;BME280;1615;53.602;11.418;2023-05-23T09:40:10;100851.38;;;19.93;100.00
3206;BME280;1615;53.602;11.418;2023-05-23T09:42:41;100866.56;;;19.56;100.00
3206;BME280;1615;53.602;11.418;2023-05-23T09:45:07;100869.34;;;19.44;100.00
3206;BME280;1615;53.602;11.418;2023-05-23T09:47:32;100874.44;;;18.94;100.00
3206;BME280;1615;53.602;11.418;2023-05-23T09:49:57;100876.50;;;18.85;100.00
3206;BME280;1615;53.602;11.418;2023-05-23T09:52:23;100833.22;;;18.27;100.00
3206;BME280;1615;53.602;11.418;2023-05-23T09:54:48;100885.06;;;18.80;100.00
3206;BME280;1615;53.602;11.418;2023-05-23T09:57:14;100895.31;;;18.55;100.00
3206;BME280;1615;53.602;11.418;2023-05-23T09:59:52;100893.13;;;18.61;100.00
3206;BME280;1615;53.602;11.418;2023-05-23T10:02:53;100833.84;;;18.45;100.00
3206;BME280;1615;53.602;11.418;2023-05-23T10:05:39;100906.47;;;18.79;100.00
3206;BME280;1615;53.602;11.418;2023-05-23T10:08:13;100863.16;;;18.22;100.00
3206;BME280;1615;53.602;11.418;2023-05-23T10:13:42;100916.78;;;18.34;100.00
3206;BME280;1615;53.602;11.418;2023-05-23T10:18:58;100909.78;;;18.61;100.00
3206;BME280;1615;53.602;11.418;2023-05-23T10:21:43;100822.03;;;18.03;100.00
3206;BME280;1615;53.602;11.418;2023-05-23T10:24:14;100940.63;;;18.80;100.00
3206;BME280;1615;53.602;11.418;2023-05-23T10:26:40;100929.91;;;18.46;100.00
3206;BME280;1615;53.602;11.418;2023-05-23T10:29:05;100939.63;;;18.52;100.00
3206;BME280;1615;53.602;11.418;2023-05-23T10:31:31;100939.44;;;18.69;100.00
3206;BME280;1615;53.602;11.418;2023-05-23T10:34:26;100935.31;;;18.87;100.00
3206;BME280;1615;53.602;11.418;2023-05-23T10:37:02;100940.41;;;18.73;100.00
3206;BME280;1615;53.602;11.418;2023-05-23T10:39:42;100950.22;;;18.70;100.00
3206;BME280;1615;53.602;11.418;2023-05-23T10:42:21;100947.69;;;18.45;100.00
3206;BME280;1615;53.602;11.418;2023-05-23T10:44:51;100929.91;;;18.46;100.00
3206;BME280;1615;53.602;11.418;2023-05-23T10:47:25;100950.75;;;18.52;100.00
3206;BME280;1615;53.602;11.418;2023-05-23T10:49:53;100919.22;;;17.95;100.00
3206;BME280;1615;53.602;11.418;2023-05-23T10:52:19;100963.88;;;18.02;100.00
3206;BME280;1615;53.602;11.418;2023-05-23T10:54:50;100976.97;;;17.72;100.00
3206;BME280;1615;53.602;11.418;2023-05-23T10:57:18;100908.50;;;17.44;100.00
3206;BME280;1615;53.602;11.418;2023-05-23T10:59:45;100969.84;;;17.92;100.00
3206;BME280;1615;53.602;11.418;2023-05-23T11:02:40;100979.03;;;17.84;100.00
3206;BME280;1615;53.602;11.418;2023-05-23T11:05:19;100984.00;;;17.70;100.00
3206;BME280;1615;53.602;11.418;2023-05-23T11:07:46;100986.16;;;17.64;100.00
3206;BME280;1615;53.602;11.418;2023-05-23T11:10:12;100990.75;;;17.89;100.00
3206;BME280;1615;53.602;11.418;2023-05-23T11:12:43;100985.72;;;17.83;100.00
3206;BME280;1615;53.602;11.418;2023-05-23T11:17:50;101006.78;;;18.04;100.00
3206;BME280;1615;53.602;11.418;2023-05-23T11:20:17;101014.63;;;18.02;100.00
3206;BME280;1615;53.602;11.418;2023-05-23T11:22:53;101005.03;;;18.00;100.00
3206;BME280;1615;53.602;11.418;2023-05-23T11:25:19;100930.88;;;17.59;100.00
3206;BME280;1615;53.602;11.418;2023-05-23T11:27:45;101015.53;;;18.15;100.00
3206;BME280;1615;53.602;11.418;2023-05-23T11:30:15;100943.28;;;17.82;100.00
3206;BME280;1615;53.602;11.418;2023-05-23T11:32:49;101011.25;;;18.17;100.00
3206;BME280;1615;53.602;11.418;2023-05-23T11:35:15;100960.63;;;18.00;100.00
3206;BME280;1615;53.602;11.418;2023-05-23T11:37:42;101013.94;;;18.34;100.00
3206;BME280;1615;53.602;11.418;2023-05-23T11:40:25;101014.25;;;18.33;100.00
3206;BME280;1615;53.602;11.418;2023-05-23T11:42:52;101016.28;;;18.24;100.00
3206;BME280;1615;53.602;11.418;2023-05-23T11:45:21;101022.31;;;18.26;100.00
3206;BME280;1615;53.602;11.418;2023-05-23T11:47:46;101026.25;;;17.96;100.00
3206;BME280;1615;53.602;11.418;2023-05-23T11:50:18;101054.09;;;17.79;100.00
3206;BME280;1615;53.602;11.418;2023-05-23T11:52:49;101037.44;;;17.50;100.00
3206;BME280;1615;53.602;11.418;2023-05-23T11:55:20;101044.78;;;17.46;100.00
3206;BME280;1615;53.602;11.418;2023-05-23T11:57:47;101051.91;;;17.09;100.00
3206;BME280;1615;53.602;11.418;2023-05-23T12:00:13;101057.63;;;16.79;100.00
3206;BME280;1615;53.602;11.418;2023-05-23T12:02:40;101035.47;;;16.19;100.00
3206;BME280;1615;53.602;11.418;2023-05-23T12:05:10;101070.47;;;16.32;100.00
3206;BME280;1615;53.602;11.418;2023-05-23T12:07:54;100865.06;;;14.47;100.00
3206;BME280;1615;53.602;11.418;2023-05-23T12:10:20;101069.50;;;16.37;100.00
3206;BME280;1615;53.602;11.418;2023-05-23T12:12:46;100715.69;;;13.40;100.00
3206;BME280;1615;53.602;11.418;2023-05-23T12:15:12;101084.34;;;15.76;100.00
3206;BME280;1615;53.602;11.418;2023-05-23T12:17:38;101096.38;;;15.80;100.00
3206;BME280;1615;53.602;11.418;2023-05-23T12:20:05;100994.41;;;15.01;100.00
3206;BME280;1615;53.602;11.418;2023-05-23T12:22:30;101104.38;;;15.51;100.00
3206;BME280;1615;53.602;11.418;2023-05-23T12:24:56;101107.09;;;15.43;100.00
3206;BME280;1615;53.602;11.418;2023-05-23T12:27:29;101107.59;;;15.23;100.00
3206;BME280;1615;53.602;11.418;2023-05-23T12:30:27;101114.75;;;15.24;100.00
3206;BME280;1615;53.602;11.418;2023-05-23T12:32:53;101122.50;;;15.13;100.00
3206;BME280;1615;53.602;11.418;2023-05-23T12:35:18;101045.28;;;14.78;100.00
3206;BME280;1615;53.602;11.418;2023-05-23T12:37:44;101038.75;;;14.74;100.00
3206;BME280;1615;53.602;11.418;2023-05-23T12:40:12;101100.81;;;15.29;100.00
3206;BME280;1615;53.602;11.418;2023-05-23T12:42:51;101121.91;;;15.25;100.00
3206;BME280;1615;53.602;11.418;2023-05-23T12:45:17;101128.03;;;15.35;100.00
3206;BME280;1615;53.602;11.418;2023-05-23T12:47:42;101122.91;;;15.29;100.00
3206;BME280;1615;53.602;11.418;2023-05-23T12:50:08;101126.09;;;15.36;100.00
3206;BME280;1615;53.602;11.418;2023-05-23T12:52:35;101127.19;;;15.35;100.00
3206;BME280;1615;53.602;11.418;2023-05-23T12:55:01;101130.09;;;15.52;100.00
3206;BME280;1615;53.602;11.418;2023-05-23T12:57:27;101130.84;;;15.44;100.00
3206;BME280;1615;53.602;11.418;2023-05-23T12:59:52;101112.72;;;15.60;100.00
3206;BME280;1615;53.602;11.418;2023-05-23T13:02:17;101095.88;;;15.39;100.00